Time;durP1;ratioP1;P1;durP2;ratioP2;P2;SDS_P1;SDS_P2;PMS_P1;PMS_P2;Temp;Humidity;BMP_temperature;BMP_pressure;BME280_temperature;BME280_humidity;BME280_pressure;Samples;Min_cycle;Max_cycle;Signal;HPM_P1;HPM_P2
2023/03/30 00:00:57;;;;;;;9.93;9.53;;;;;;;4.93;55.40;93268.78;5042985;28;20243;-69
2023/03/30 00:03:23;;;;;;;10.47;9.67;;;;;;;4.96;55.76;93268.31;5044441;28;20600;-69
2023/03/30 00:05:50;;;;;;;10.03;9.50;;;;;;;4.96;57.34;93268.31;5043209;28;20238;-68
2023/03/30 00:08:17;;;;;;;11.20;10.70;;;;;;;4.88;56.91;93273.88;5044625;28;20170;-68
2023/03/30 00:10:43;;;;;;;9.77;9.30;;;;;;;4.86;56.05;93272.50;5034033;28;20214;-68
2023/03/30 00:13:09;;;;;;;10.37;9.87;;;;;;;4.92;55.45;93269.81;5030569;28;21316;-67
2023/03/30 00:15:35;;;;;;;9.80;9.30;;;;;;;4.93;55.29;93265.44;5031358;28;20238;-70
2023/03/30 00:18:00;;;;;;;9.77;9.07;;;;;;;4.73;56.00;93249.50;5032024;28;20245;-68
2023/03/30 00:20:26;;;;;;;9.03;8.63;;;;;;;4.87;55.81;93269.69;5031844;28;20231;-69
2023/03/30 00:22:51;;;;;;;9.60;9.17;;;;;;;4.88;56.97;93255.75;5031956;28;20247;-68
2023/03/30 00:25:17;;;;;;;9.47;9.07;;;;;;;4.84;54.92;93259.81;5030966;28;20238;-68
2023/03/30 00:27:43;;;;;;;11.37;10.77;;;;;;;4.66;55.39;93243.63;5031793;28;20216;-68
2023/03/30 00:30:17;;;;;;;9.67;9.27;;;;;;;4.76;56.30;93254.22;5030296;28;20230;-68
2023/03/30 00:32:44;;;;;;;9.50;8.90;;;;;;;4.66;56.23;93257.38;5030675;28;20197;-68
2023/03/30 00:35:11;;;;;;;10.50;10.00;;;;;;;4.67;56.34;93246.00;5030939;28;20254;-68
2023/03/30 00:37:37;;;;;;;10.00;9.60;;;;;;;4.68;56.87;93260.53;5031628;28;20186;-69
2023/03/30 00:40:06;;;;;;;9.87;9.27;;;;;;;4.71;56.60;93249.72;5030785;28;20222;-68
2023/03/30 00:42:34;;;;;;;11.40;10.80;;;;;;;4.66;59.64;93249.59;5030515;28;20187;-69
2023/03/30 00:45:09;;;;;;;10.57;10.00;;;;;;;4.60;58.31;93260.84;5030380;28;20226;-68
2023/03/30 00:47:39;;;;;;;10.63;9.93;;;;;;;4.53;58.75;93262.75;5031817;28;20182;-70
2023/03/30 00:50:06;;;;;;;10.10;9.40;;;;;;;4.54;59.57;93263.56;5031193;28;20269;-70
2023/03/30 00:52:36;;;;;;;9.57;9.03;;;;;;;4.42;60.53;93255.78;5031415;28;20183;-70
2023/03/30 00:55:06;;;;;;;10.57;9.97;;;;;;;4.47;60.31;93263.66;5030986;28;20672;-70
2023/03/30 00:57:34;;;;;;;10.37;9.87;;;;;;;4.45;60.50;93250.16;5031614;28;20186;-70
2023/03/30 01:00:00;;;;;;;9.90;9.30;;;;;;;4.37;61.51;93255.66;5030498;28;20904;-70
2023/03/30 01:02:30;;;;;;;9.10;8.70;;;;;;;4.44;61.15;93261.53;5031184;28;20193;-70
2023/03/30 01:04:56;;;;;;;10.63;10.13;;;;;;;4.40;60.46;93257.84;5030693;28;20253;-70
2023/03/30 01:07:23;;;;;;;9.20;8.83;;;;;;;4.42;61.72;93268.72;5031201;28;20195;-70
2023/03/30 01:09:50;;;;;;;9.70;9.27;;;;;;;4.46;61.53;93256.94;5030422;28;20243;-70
2023/03/30 01:12:16;;;;;;;10.73;10.27;;;;;;;4.50;61.47;93246.91;5030843;28;20199;-69
2023/03/30 01:14:42;;;;;;;13.47;12.07;;;;;;;4.31;61.08;93227.38;5030542;28;20237;-70
2023/03/30 01:17:16;;;;;;;11.40;10.70;;;;;;;4.64;62.18;93266.34;5030705;28;20889;-71
2023/03/30 01:20:02;;;;;;;9.53;9.03;;;;;;;4.59;61.15;93258.50;5029729;28;20230;-70
2023/03/30 01:22:55;;;;;;;10.47;9.97;;;;;;;4.51;61.96;93264.78;5029907;28;20851;-70
2023/03/30 01:25:30;;;;;;;10.73;10.13;;;;;;;4.42;61.53;93248.03;5029307;28;20268;-70
2023/03/30 01:28:29;;;;;;;10.53;9.87;;;;;;;4.48;60.88;93265.22;5030721;28;20186;-70
2023/03/30 01:31:13;;;;;;;11.17;10.43;;;;;;;4.63;61.69;93263.00;5029749;28;20326;-69
2023/03/30 01:33:47;;;;;;;9.67;9.07;;;;;;;4.68;58.76;93270.06;5030474;28;20205;-71
2023/03/30 01:36:22;;;;;;;9.63;9.13;;;;;;;4.71;57.17;93267.81;5029216;28;20229;-70
2023/03/30 01:39:14;;;;;;;9.73;9.20;;;;;;;4.63;58.25;93268.16;5030258;28;20222;-70
2023/03/30 01:41:59;;;;;;;10.00;9.50;;;;;;;4.52;59.48;93265.56;5029076;28;20248;-70
2023/03/30 01:44:43;;;;;;;9.17;8.67;;;;;;;4.52;59.12;93261.19;5029015;28;20186;-69
2023/03/30 01:47:21;;;;;;;8.80;8.40;;;;;;;4.44;59.44;93263.31;5030203;28;20198;-70
2023/03/30 01:50:12;;;;;;;10.13;9.63;;;;;;;4.48;58.85;93265.22;5028345;28;20285;-70
2023/03/30 01:53:02;;;;;;;11.07;10.40;;;;;;;4.49;59.41;93261.66;5030853;28;20222;-70
2023/03/30 01:55:58;;;;;;;10.97;10.37;;;;;;;4.48;60.09;93256.72;5028805;28;20250;-70
2023/03/30 01:58:38;;;;;;;9.43;9.00;;;;;;;4.37;61.53;93263.44;5028900;28;20225;-70
2023/03/30 02:01:06;;;;;;;9.60;8.97;;;;;;;4.29;60.06;93252.66;5044075;28;20222;-70
2023/03/30 02:03:36;;;;;;;9.53;9.03;;;;;;;4.27;60.25;93273.56;5030156;28;20175;-70
2023/03/30 02:06:09;;;;;;;10.07;9.57;;;;;;;4.32;61.62;93276.25;5029131;28;20226;-71
2023/03/30 02:08:36;;;;;;;10.53;9.93;;;;;;;4.36;60.58;93279.97;5029334;28;20199;-70
2023/03/30 02:11:01;;;;;;;10.20;9.60;;;;;;;4.35;61.24;93255.13;5028301;28;20222;-71
2023/03/30 02:13:30;;;;;;;10.40;9.90;;;;;;;4.33;61.09;93262.31;5028695;28;20191;-71
2023/03/30 02:16:01;;;;;;;10.20;9.73;;;;;;;4.27;61.15;93242.53;5028306;28;20229;-70
2023/03/30 02:18:27;;;;;;;10.53;9.77;;;;;;;4.30;59.80;93252.44;5030158;28;20337;-70
2023/03/30 02:20:55;;;;;;;9.60;9.10;;;;;;;4.26;61.28;93255.69;5029009;28;20257;-69
2023/03/30 02:23:24;;;;;;;9.90;9.40;;;;;;;4.09;61.36;93249.59;5029791;28;20251;-71
2023/03/30 02:25:50;;;;;;;10.60;9.90;;;;;;;4.23;62.45;93269.84;5029035;28;20226;-69
2023/03/30 02:28:17;;;;;;;9.37;8.93;;;;;;;4.29;63.37;93266.38;5029741;28;20222;-70
2023/03/30 02:30:44;;;;;;;9.47;9.07;;;;;;;4.08;63.05;93259.16;5028971;28;20238;-70
2023/03/30 02:33:23;;;;;;;10.67;9.97;;;;;;;4.10;63.59;93270.06;5029164;28;20195;-69
2023/03/30 02:36:16;;;;;;;11.20;10.57;;;;;;;4.11;63.48;93263.09;5029045;28;20257;-71
2023/03/30 02:39:00;;;;;;;10.13;9.63;;;;;;;4.10;63.76;93264.09;5029280;28;20915;-70
2023/03/30 02:41:41;;;;;;;10.03;9.53;;;;;;;3.96;63.76;93271.25;5029183;28;20222;-70
2023/03/30 02:44:21;;;;;;;9.43;8.90;;;;;;;3.97;64.01;93277.22;5029401;28;20250;-69
2023/03/30 02:47:08;;;;;;;9.30;8.70;;;;;;;4.02;63.71;93265.22;5009462;28;20239;-70
2023/03/30 02:50:09;;;;;;;11.23;10.60;;;;;;;4.12;63.59;93278.38;5010391;28;20183;-70
2023/03/30 02:52:52;;;;;;;9.53;9.03;;;;;;;4.12;63.92;93278.38;5019727;28;20185;-70
2023/03/30 02:55:36;;;;;;;9.73;9.27;;;;;;;4.17;64.85;93268.13;5017635;28;20291;-71
2023/03/30 02:58:22;;;;;;;9.67;9.17;;;;;;;4.05;65.02;93262.19;5017257;28;20238;-70
2023/03/30 03:00:52;;;;;;;9.73;9.33;;;;;;;4.14;65.79;93275.56;5010187;28;20231;-70
2023/03/30 03:03:26;;;;;;;11.10;10.40;;;;;;;4.12;65.63;93270.63;5040801;28;20291;-70
2023/03/30 03:05:53;;;;;;;10.13;9.53;;;;;;;4.15;66.64;93272.75;5009118;28;20257;-70
2023/03/30 03:08:23;;;;;;;9.93;9.40;;;;;;;4.27;66.63;93278.72;5008313;28;20902;-70
2023/03/30 03:10:50;;;;;;;10.40;9.80;;;;;;;4.30;68.86;93288.59;5021978;28;20261;-70
2023/03/30 03:13:16;;;;;;;11.77;10.77;;;;;;;4.40;70.88;93282.88;5029060;28;20210;-70
2023/03/30 03:15:44;;;;;;;11.13;10.60;;;;;;;4.11;69.28;93268.25;5028506;28;20983;-70
2023/03/30 03:18:11;;;;;;;10.73;10.23;;;;;;;4.27;69.05;93290.84;5028448;28;20207;-70
2023/03/30 03:20:37;;;;;;;10.03;9.50;;;;;;;4.14;69.98;93275.56;5029126;28;20231;-70
2023/03/30 03:23:02;;;;;;;10.87;10.17;;;;;;;4.18;70.57;93290.41;5029398;28;20198;-70
2023/03/30 03:25:28;;;;;;;10.03;9.43;;;;;;;4.27;71.14;93278.72;5028609;28;20232;-70
2023/03/30 03:27:53;;;;;;;9.77;9.30;;;;;;;4.19;70.81;93291.97;5029376;28;20209;-70
2023/03/30 03:30:18;;;;;;;11.70;10.80;;;;;;;4.06;72.53;93287.00;5028831;28;20276;-70
2023/03/30 03:32:44;;;;;;;10.30;9.80;;;;;;;4.09;71.40;93290.94;5029289;28;20201;-71
2023/03/30 03:35:09;;;;;;;10.50;9.40;;;;;;;4.28;72.74;93290.63;5028515;28;20918;-70
2023/03/30 03:37:36;;;;;;;10.27;9.60;;;;;;;4.33;71.00;93292.53;5028761;28;20187;-70
2023/03/30 03:40:01;;;;;;;10.83;10.33;;;;;;;4.34;71.64;93281.19;5026826;28;20251;-70
2023/03/30 03:42:26;;;;;;;11.73;11.03;;;;;;;4.25;72.77;93287.72;5028506;28;20197;-70
2023/03/30 03:44:52;;;;;;;10.77;10.30;;;;;;;4.07;74.21;93280.84;5029664;28;20234;-71
2023/03/30 03:47:17;;;;;;;10.57;9.97;;;;;;;3.84;75.65;93283.38;5031363;28;20221;-70
2023/03/30 03:49:42;;;;;;;11.87;11.17;;;;;;;4.06;75.24;93288.81;5028779;28;20293;-72
2023/03/30 03:52:09;;;;;;;11.50;10.80;;;;;;;3.81;76.95;93283.81;5030905;28;20202;-71
2023/03/30 03:54:35;;;;;;;10.33;9.63;;;;;;;3.89;77.29;93301.56;5030315;28;20242;-68
2023/03/30 03:57:00;;;;;;;10.97;10.37;;;;;;;3.81;77.50;93303.69;5029665;28;20246;-70
2023/03/30 03:59:26;;;;;;;11.53;10.80;;;;;;;3.78;78.38;93299.75;5030213;28;21099;-69
2023/03/30 04:01:52;;;;;;;10.03;9.57;;;;;;;3.85;78.31;93297.06;5029291;28;20214;-68
2023/03/30 04:04:17;;;;;;;10.43;9.87;;;;;;;3.82;77.60;93293.13;5028548;28;20206;-69
2023/03/30 04:06:44;;;;;;;11.20;10.60;;;;;;;3.80;77.66;93282.22;5027718;28;20198;-68
2023/03/30 04:09:09;;;;;;;11.33;10.30;;;;;;;3.97;77.20;93303.81;5031369;28;20210;-67
2023/03/30 04:11:35;;;;;;;11.70;10.90;;;;;;;3.88;75.44;93263.03;5031542;28;20234;-72
2023/03/30 04:14:00;;;;;;;10.57;9.97;;;;;;;4.02;76.02;93264.41;5030714;28;20453;-68
2023/03/30 04:16:27;;;;;;;10.43;9.77;;;;;;;4.32;75.07;93307.28;5031696;28;20276;-70
2023/03/30 04:18:52;;;;;;;10.97;10.37;;;;;;;4.35;75.82;93299.06;5031127;28;20210;-76
2023/03/30 04:21:19;;;;;;;10.43;9.67;;;;;;;4.34;75.68;93312.97;5031209;28;20242;-70
2023/03/30 04:23:47;;;;;;;10.83;10.17;;;;;;;4.34;76.16;93304.47;5031395;28;20198;-68
2023/03/30 04:26:14;;;;;;;9.20;8.60;;;;;;;4.41;76.00;93303.34;5031896;28;20226;-70
2023/03/30 04:28:40;;;;;;;12.83;11.73;;;;;;;5.66;92.04;93294.00;5031809;28;20195;-74
2023/03/30 04:31:09;;;;;;;11.30;10.50;;;;;;;5.90;75.33;93300.72;5031055;28;20230;-72
2023/03/30 04:33:36;;;;;;;9.50;8.87;;;;;;;5.05;73.60;93301.59;5031103;28;20201;-71
2023/03/30 04:36:03;;;;;;;10.87;10.23;;;;;;;4.60;75.06;93312.56;5029500;28;20274;-70
2023/03/30 04:38:28;;;;;;;10.23;9.57;;;;;;;4.39;75.99;93302.00;5031202;28;20237;-71
2023/03/30 04:40:54;;;;;;;11.00;10.40;;;;;;;4.23;76.92;93300.88;5030806;28;20223;-70
2023/03/30 04:43:22;;;;;;;9.53;9.03;;;;;;;4.32;76.66;93296.13;5031407;28;20205;-70
2023/03/30 04:45:52;;;;;;;10.50;9.87;;;;;;;4.32;76.54;93304.69;5030140;28;20445;-70
2023/03/30 04:48:18;;;;;;;9.80;9.30;;;;;;;4.15;76.71;93296.00;5030343;28;20218;-70
2023/03/30 04:50:45;;;;;;;10.57;10.07;;;;;;;4.17;77.04;93312.06;5027433;28;20214;-70
2023/03/30 04:53:13;;;;;;;11.67;11.20;;;;;;;4.27;77.00;93309.72;5029452;28;20189;-70
2023/03/30 04:55:39;;;;;;;11.97;11.27;;;;;;;4.53;76.15;93313.66;5030371;28;20253;-68
2023/03/30 04:58:05;;;;;;;11.53;10.83;;;;;;;4.43;75.93;93313.47;5031046;28;20210;-67
2023/03/30 05:00:30;;;;;;;13.40;9.70;;;;;;;4.44;75.81;93325.34;5028808;28;20241;-68
2023/03/30 05:02:56;;;;;;;11.13;10.60;;;;;;;4.59;75.15;93328.31;5031018;28;20226;-69
2023/03/30 05:05:21;;;;;;;11.17;10.47;;;;;;;4.62;74.63;93318.28;5031139;28;20230;-68
2023/03/30 05:07:47;;;;;;;11.10;10.50;;;;;;;4.74;74.80;93321.69;5030655;28;20237;-68
2023/03/30 05:10:13;;;;;;;10.90;10.10;;;;;;;4.86;73.39;93319.06;5030400;28;20223;-66
2023/03/30 05:12:38;;;;;;;11.70;10.93;;;;;;;4.83;73.93;93330.66;5030687;28;20202;-68
2023/03/30 05:15:04;;;;;;;11.60;11.03;;;;;;;4.93;73.82;93330.88;5029445;28;20270;-67
2023/03/30 05:17:33;;;;;;;9.77;9.27;;;;;;;4.78;74.25;93327.97;5029372;28;20209;-70
2023/03/30 05:19:59;;;;;;;11.13;10.50;;;;;;;4.73;75.41;93330.44;5029791;28;20217;-68
2023/03/30 05:22:24;;;;;;;11.03;10.47;;;;;;;4.88;75.70;93317.06;5029801;28;20177;-68
2023/03/30 05:24:51;;;;;;;10.10;9.43;;;;;;;4.85;76.04;93323.47;5029662;28;20242;-69
2023/03/30 05:27:16;;;;;;;11.13;10.57;;;;;;;5.01;75.24;93326.38;5030201;28;20197;-68
2023/03/30 05:29:42;;;;;;;11.03;10.43;;;;;;;4.90;75.65;93330.56;5029881;28;20242;-68
2023/03/30 05:32:08;;;;;;;10.13;9.43;;;;;;;4.83;75.78;93329.88;5030436;28;20200;-67
2023/03/30 05:34:33;;;;;;;11.13;10.53;;;;;;;4.92;76.02;93331.09;5029056;28;20193;-69
2023/03/30 05:36:58;;;;;;;10.53;9.83;;;;;;;4.87;75.61;93321.44;5029976;28;20186;-69
2023/03/30 05:39:24;;;;;;;11.33;10.53;;;;;;;5.15;74.14;93319.94;5029031;28;20203;-69
2023/03/30 05:41:49;;;;;;;12.17;11.57;;;;;;;5.30;73.61;93326.22;5026690;28;20247;-69
2023/03/30 05:44:15;;;;;;;10.30;9.70;;;;;;;5.25;72.70;93318.34;5018506;28;20195;-68
2023/03/30 05:46:40;;;;;;;11.50;10.87;;;;;;;5.71;71.60;93322.59;5027889;28;20197;-68
2023/03/30 05:49:06;;;;;;;12.03;11.27;;;;;;;5.54;71.98;93334.72;5027775;28;20205;-68
2023/03/30 05:51:31;;;;;;;10.40;9.47;;;;;;;5.55;72.06;93333.69;5028486;28;21132;-68
2023/03/30 05:53:57;;;;;;;12.17;11.47;;;;;;;5.57;71.53;93334.25;5028212;28;20292;-69
2023/03/30 05:56:23;;;;;;;11.83;10.80;;;;;;;5.58;72.01;93330.63;5028637;28;21159;-68
2023/03/30 05:58:50;;;;;;;10.90;10.27;;;;;;;5.71;71.38;93353.69;5029165;28;20240;-69
2023/03/30 06:01:15;;;;;;;11.53;10.63;;;;;;;5.67;70.93;93349.97;5026958;28;20230;-68
2023/03/30 06:03:41;;;;;;;10.20;9.60;;;;;;;5.78;70.91;93355.13;5029026;28;20202;-69
2023/03/30 06:06:07;;;;;;;12.43;11.57;;;;;;;5.90;70.78;93349.94;5026045;28;20222;-68
2023/03/30 06:08:32;;;;;;;11.67;10.80;;;;;;;5.75;71.40;93344.44;5023713;28;20209;-69
2023/03/30 06:10:58;;;;;;;11.73;10.73;;;;;;;5.74;70.82;93337.69;5027919;28;20223;-69
2023/03/30 06:13:24;;;;;;;12.40;11.33;;;;;;;5.67;72.01;93362.91;5028980;28;20190;-69
2023/03/30 06:15:50;;;;;;;12.57;11.57;;;;;;;5.58;72.67;93366.91;5026419;28;20248;-67
2023/03/30 06:18:15;;;;;;;12.47;11.40;;;;;;;5.42;74.10;93370.19;5028107;28;20219;-68
2023/03/30 06:20:41;;;;;;;13.10;11.90;;;;;;;5.51;73.09;93374.78;5028148;28;20265;-70
2023/03/30 06:23:06;;;;;;;13.77;12.60;;;;;;;5.61;72.77;93384.56;5027124;28;20195;-69
2023/03/30 06:25:32;;;;;;;12.37;11.60;;;;;;;5.82;72.04;93379.56;5026936;28;20222;-67
2023/03/30 06:27:58;;;;;;;12.77;11.67;;;;;;;5.51;74.20;93379.97;5027212;28;20190;-67
2023/03/30 06:30:23;;;;;;;13.10;11.97;;;;;;;5.68;73.00;93367.09;5025775;28;20223;-69
2023/03/30 06:32:48;;;;;;;12.67;11.77;;;;;;;5.62;73.43;93391.34;5027103;28;20191;-70
2023/03/30 06:35:17;;;;;;;13.47;12.53;;;;;;;5.46;74.11;93392.03;5027269;28;20234;-67
2023/03/30 06:37:43;;;;;;;14.67;13.17;;;;;;;5.28;74.89;93386.97;5028650;28;20202;-67
2023/03/30 06:40:12;;;;;;;13.23;12.13;;;;;;;5.54;74.96;93383.91;5025748;28;20242;-70
2023/03/30 06:42:39;;;;;;;12.80;11.70;;;;;;;5.81;74.26;93375.38;5027955;28;20201;-68
2023/03/30 06:45:05;;;;;;;19.00;12.77;;;;;;;5.96;73.46;93380.09;5027175;28;20246;-67
2023/03/30 06:47:30;;;;;;;13.90;12.83;;;;;;;5.89;73.80;93376.84;5025594;28;20259;-67
2023/03/30 06:49:56;;;;;;;12.63;11.43;;;;;;;6.25;73.12;93392.03;5027114;28;20242;-67
2023/03/30 06:52:21;;;;;;;14.07;12.93;;;;;;;6.61;72.15;93391.63;5028267;28;20213;-67
2023/03/30 06:54:46;;;;;;;13.90;12.50;;;;;;;6.84;71.54;93391.47;5026571;28;20233;-66
2023/03/30 06:57:12;;;;;;;13.87;12.47;;;;;;;7.10;69.59;93384.81;5028158;28;20202;-66
2023/03/30 06:59:37;;;;;;;13.70;12.37;;;;;;;6.84;70.59;93394.06;5026524;28;20238;-68
2023/03/30 07:02:03;;;;;;;13.40;12.30;;;;;;;6.83;70.32;93376.13;5028459;28;20214;-69
2023/03/30 07:04:28;;;;;;;13.30;12.20;;;;;;;6.91;70.70;93402.47;5026606;28;20199;-68
2023/03/30 07:06:56;;;;;;;13.07;11.90;;;;;;;7.22;69.39;93404.47;5024665;28;20237;-69
2023/03/30 07:09:23;;;;;;;14.53;13.07;;;;;;;6.76;70.60;93389.25;5027097;28;20191;-70
2023/03/30 07:11:49;;;;;;;14.03;12.70;;;;;;;7.13;69.23;93392.94;5027834;28;20199;-69
2023/03/30 07:14:14;;;;;;;14.90;12.83;;;;;;;7.30;68.30;93400.72;5026245;28;20197;-70
2023/03/30 07:16:39;;;;;;;14.17;13.03;;;;;;;7.61;67.43;93397.50;5027013;28;20258;-69
2023/03/30 07:19:05;;;;;;;14.00;12.60;;;;;;;8.00;66.35;93391.97;5026016;28;20209;-69
2023/03/30 07:21:31;;;;;;;12.80;11.87;;;;;;;7.57;67.21;93381.59;5030915;28;20931;-69
2023/03/30 07:24:00;;;;;;;14.77;13.47;;;;;;;7.96;66.69;93401.31;5030807;28;20259;-70
2023/03/30 07:26:27;;;;;;;15.13;13.53;;;;;;;8.07;65.03;93397.78;5030487;28;20249;-70
2023/03/30 07:28:53;;;;;;;13.73;12.40;;;;;;;7.77;65.52;93371.44;5032260;28;20198;-71
2023/03/30 07:31:20;;;;;;;14.57;13.07;;;;;;;7.81;66.44;93408.91;5028022;28;20234;-71
2023/03/30 07:33:46;;;;;;;15.10;13.80;;;;;;;7.31;69.24;93407.47;5030847;28;20276;-71
2023/03/30 07:36:12;;;;;;;13.53;12.07;;;;;;;8.14;66.55;93408.78;5029938;28;20234;-71
2023/03/30 07:38:37;;;;;;;13.10;11.90;;;;;;;8.17;65.51;93413.50;5030056;28;20297;-71
2023/03/30 07:41:12;;;;;;;13.97;12.40;;;;;;;8.32;64.82;93412.09;5030822;28;20298;-70
2023/03/30 07:43:41;;;;;;;15.70;14.50;;;;;;;8.58;65.08;93408.72;5029889;28;20182;-71
2023/03/30 07:46:08;;;;;;;14.97;13.70;;;;;;;8.33;64.88;93398.09;5030736;28;20231;-71
2023/03/30 07:48:34;;;;;;;14.60;13.40;;;;;;;8.32;64.53;93384.28;5030089;28;20186;-72
2023/03/30 07:51:06;;;;;;;13.87;12.87;;;;;;;8.85;63.44;93414.69;5030010;28;20230;-71
2023/03/30 07:53:32;;;;;;;14.23;13.03;;;;;;;9.01;62.04;93396.31;5030583;28;20205;-72
2023/03/30 07:55:58;;;;;;;15.07;13.67;;;;;;;9.51;61.40;93416.72;5029152;28;20227;-73
2023/03/30 07:58:23;;;;;;;17.60;13.07;;;;;;;10.07;58.78;93405.56;5030898;28;20241;-73
2023/03/30 08:00:49;;;;;;;15.00;13.80;;;;;;;10.25;57.84;93405.13;5029879;28;20219;-72
2023/03/30 08:03:14;;;;;;;15.70;14.40;;;;;;;9.71;58.76;93398.63;5029971;28;20195;-72
2023/03/30 08:05:41;;;;;;;16.77;14.23;;;;;;;8.40;65.43;93396.06;5029606;28;20227;-71
2023/03/30 08:08:06;;;;;;;15.47;13.87;;;;;;;9.05;63.15;93409.66;5029877;28;20183;-73
2023/03/30 08:10:32;;;;;;;15.03;13.73;;;;;;;9.13;61.80;93411.78;5031220;28;20265;-72
2023/03/30 08:12:58;;;;;;;15.90;13.73;;;;;;;9.69;59.39;93411.13;5030804;28;20190;-73
2023/03/30 08:15:24;;;;;;;15.83;14.43;;;;;;;9.51;59.97;93414.13;5031165;28;20286;-73
2023/03/30 08:17:49;;;;;;;16.47;15.03;;;;;;;9.54;59.60;93400.63;5030401;28;20258;-73
2023/03/30 08:20:15;;;;;;;14.83;13.53;;;;;;;9.10;60.67;93401.88;5031039;28;20231;-73
2023/03/30 08:22:40;;;;;;;16.27;14.87;;;;;;;9.69;60.53;93413.72;5030317;28;20195;-73
2023/03/30 08:25:06;;;;;;;20.37;18.87;;;;;;;9.90;59.08;93406.78;5029700;28;20241;-72
2023/03/30 08:27:32;;;;;;;13.57;12.57;;;;;;;9.60;61.03;93399.59;5030696;28;20175;-72
2023/03/30 08:29:57;;;;;;;14.50;13.43;;;;;;;9.80;57.62;93391.88;5028449;28;20230;-70
2023/03/30 08:32:22;;;;;;;14.57;13.27;;;;;;;10.23;56.24;93391.53;5028773;28;20179;-71
2023/03/30 08:34:48;;;;;;;14.87;13.33;;;;;;;10.52;55.71;93397.09;5029694;28;20235;-72
2023/03/30 08:37:13;;;;;;;14.50;13.23;;;;;;;10.70;56.45;93404.44;5029807;28;20213;-72
2023/03/30 08:39:39;;;;;;;15.43;14.13;;;;;;;10.64;55.31;93397.63;5030118;28;20243;-71
2023/03/30 08:42:43;;;;;;;14.20;12.90;;;;;;;9.97;57.23;93402.09;5029256;28;20199;-72
2023/03/30 08:45:09;;;;;;;14.60;13.37;;;;;;;10.68;55.19;93402.06;5026890;28;20237;-72
2023/03/30 08:47:42;;;;;;;14.40;13.40;;;;;;;10.63;55.14;93394.22;5029375;28;20266;-74
2023/03/30 08:50:12;;;;;;;14.07;12.97;;;;;;;10.35;54.60;93391.31;5027156;28;20233;-73
2023/03/30 08:52:40;;;;;;;13.97;12.77;;;;;;;10.30;54.32;93399.91;5030350;28;20195;-74
2023/03/30 08:55:20;;;;;;;14.70;13.60;;;;;;;10.66;54.43;93395.56;5029023;28;20234;-75
2023/03/30 08:57:57;;;;;;;15.43;14.07;;;;;;;11.23;52.77;93401.31;5027821;28;20245;-73
2023/03/30 09:00:29;;;;;;;15.47;13.10;;;;;;;10.91;52.33;93401.56;5028775;28;20244;-72
2023/03/30 09:03:04;;;;;;;13.60;12.53;;;;;;;10.70;53.41;93397.38;5029989;28;20202;-73
2023/03/30 09:05:33;;;;;;;14.77;12.73;;;;;;;10.74;53.15;93402.88;5026968;28;20247;-74
2023/03/30 09:08:09;;;;;;;15.57;13.97;;;;;;;10.59;55.19;93390.56;5029074;28;20791;-75
2023/03/30 09:10:42;;;;;;;15.23;13.80;;;;;;;10.51;53.56;93390.28;5028769;28;20247;-74
2023/03/30 09:13:12;;;;;;;14.43;13.23;;;;;;;11.04;51.89;93388.00;5028897;28;20196;-73
2023/03/30 09:15:53;;;;;;;12.23;11.23;;;;;;;10.67;54.63;93384.84;5027230;28;20227;-72
2023/03/30 09:18:30;;;;;;;13.50;12.37;;;;;;;10.49;50.82;93379.34;5028360;28;20213;-72
2023/03/30 09:20:58;;;;;;;13.30;12.20;;;;;;;10.73;52.88;93381.19;5043365;28;20230;-72
2023/03/30 09:23:28;;;;;;;13.63;12.40;;;;;;;10.72;52.47;93357.94;5029271;28;20233;-72
2023/03/30 09:26:20;;;;;;;13.60;12.27;;;;;;;11.20;51.66;93370.47;5028765;28;20228;-73
2023/03/30 09:28:55;;;;;;;12.87;11.87;;;;;;;10.28;52.61;93372.50;5028708;28;20202;-73
2023/03/30 09:31:37;;;;;;;12.60;11.60;;;;;;;10.90;51.54;93360.81;5025815;28;20302;-72
2023/03/30 09:34:20;;;;;;;12.73;11.83;;;;;;;9.74;55.35;93372.03;5027190;28;20195;-72
2023/03/30 09:37:05;;;;;;;12.07;11.27;;;;;;;9.66;54.67;93362.09;5008362;28;20238;-71
2023/03/30 09:39:34;;;;;;;12.73;11.83;;;;;;;9.22;55.82;93347.78;5008261;28;20223;-72
2023/03/30 09:42:21;;;;;;;13.97;13.07;;;;;;;9.73;54.43;93367.84;5028352;28;20219;-72
2023/03/30 09:45:00;;;;;;;11.93;11.13;;;;;;;9.85;55.67;93352.00;5028091;28;20248;-72
2023/03/30 09:47:43;;;;;;;11.47;10.80;;;;;;;10.05;54.18;93329.38;5026618;28;20216;-72
2023/03/30 09:50:17;;;;;;;12.37;11.47;;;;;;;10.17;53.35;93343.00;5027206;28;20987;-71
2023/03/30 09:52:59;;;;;;;9.90;9.40;;;;;;;10.10;50.11;93334.59;5027944;28;20196;-72
2023/03/30 09:55:28;;;;;;;10.37;9.63;;;;;;;10.51;49.05;93340.69;5028472;28;20228;-73
2023/03/30 09:58:11;;;;;;;10.27;9.60;;;;;;;10.69;49.25;93321.91;5028090;28;20254;-71
2023/03/30 10:00:36;;;;;;;10.20;9.50;;;;;;;11.01;47.70;93331.03;5028811;28;20241;-74
2023/03/30 10:03:05;;;;;;;10.40;9.90;;;;;;;11.15;47.41;93347.75;5027803;28;20246;-75
2023/03/30 10:05:33;;;;;;;10.10;9.60;;;;;;;11.20;47.33;93336.50;5026987;28;20250;-75
2023/03/30 10:08:02;;;;;;;10.10;9.60;;;;;;;10.98;47.46;93315.88;5027754;28;21029;-74
2023/03/30 10:10:33;;;;;;;9.80;9.20;;;;;;;11.32;47.64;93326.53;5032093;28;20232;-74
2023/03/30 10:13:11;;;;;;;9.73;9.23;;;;;;;11.76;46.23;93327.50;5025871;28;20199;-73
2023/03/30 10:15:39;;;;;;;11.37;10.57;;;;;;;11.13;46.27;93323.69;5026116;28;20461;-72
2023/03/30 10:18:25;;;;;;;11.57;10.87;;;;;;;10.92;47.74;93332.63;5026896;28;20290;-70
2023/03/30 10:21:03;;;;;;;10.33;9.73;;;;;;;11.41;46.08;93314.47;5026011;28;20236;-70
2023/03/30 10:23:41;;;;;;;10.47;9.97;;;;;;;11.55;46.11;93323.34;5026089;28;20199;-70
2023/03/30 10:26:18;;;;;;;10.23;9.70;;;;;;;11.04;48.72;93317.44;5042395;28;20321;-67
2023/03/30 10:28:52;;;;;;;10.50;9.60;;;;;;;10.59;48.29;93299.19;5026439;28;20198;-71
2023/03/30 10:31:17;;;;;;;11.00;10.30;;;;;;;10.90;48.93;93311.19;5026481;28;20290;-71
2023/03/30 10:33:44;;;;;;;10.00;9.43;;;;;;;11.44;47.39;93307.97;5027517;28;20202;-70
2023/03/30 10:36:13;;;;;;;9.83;9.27;;;;;;;11.20;46.60;93308.53;5026225;28;20230;-72
2023/03/30 10:38:40;;;;;;;10.37;9.53;;;;;;;11.07;46.36;93306.47;5027251;28;20233;-71
2023/03/30 10:41:12;;;;;;;10.77;10.17;;;;;;;11.16;49.32;93310.09;5027481;28;20241;-71
2023/03/30 10:43:39;;;;;;;9.10;8.63;;;;;;;11.22;47.85;93295.97;5025656;28;20225;-72
2023/03/30 10:46:12;;;;;;;9.97;9.33;;;;;;;10.93;47.10;93276.69;5027887;28;20226;-70
2023/03/30 10:49:20;;;;;;;10.00;9.47;;;;;;;11.38;47.58;93302.75;5027144;28;20187;-73
2023/03/30 10:52:12;;;;;;;9.70;9.20;;;;;;;11.39;45.47;93308.75;5026769;28;20222;-72
2023/03/30 10:54:52;;;;;;;10.07;9.47;;;;;;;11.69;45.91;93300.06;5025274;28;20313;-71
2023/03/30 10:57:33;;;;;;;10.20;9.60;;;;;;;11.54;45.58;93292.22;5043641;28;20291;-74
2023/03/30 11:00:19;;;;;;;10.60;10.07;;;;;;;11.63;46.45;93301.09;5025935;28;20226;-74
2023/03/30 11:03:06;;;;;;;11.03;10.33;;;;;;;11.35;45.88;93294.63;5025203;28;20275;-74
2023/03/30 11:05:36;;;;;;;11.57;10.67;;;;;;;11.25;46.06;93290.22;5027859;28;20250;-72
2023/03/30 11:08:19;;;;;;;10.97;10.37;;;;;;;11.04;46.70;93282.69;5025982;28;20217;-73
2023/03/30 11:10:47;;;;;;;9.93;9.40;;;;;;;11.33;46.88;93294.91;5026761;28;20229;-73
2023/03/30 11:13:18;;;;;;;10.40;9.70;;;;;;;11.06;46.80;93289.22;5027937;28;20226;-71
2023/03/30 11:16:01;;;;;;;12.03;11.17;;;;;;;11.59;45.88;93269.47;5025408;28;20241;-71
2023/03/30 11:18:54;;;;;;;10.70;9.93;;;;;;;11.75;46.31;93278.06;5027170;28;20687;-72
2023/03/30 11:21:29;;;;;;;10.03;9.10;;;;;;;11.81;45.50;93263.91;5027359;28;20234;-72
2023/03/30 11:24:05;;;;;;;10.27;9.67;;;;;;;11.72;45.60;93265.50;5025836;28;20193;-72
2023/03/30 11:26:47;;;;;;;9.97;9.27;;;;;;;11.76;45.52;93250.84;5027896;28;20226;-72
2023/03/30 11:29:42;;;;;;;10.87;10.30;;;;;;;12.12;44.87;93267.91;5027415;28;20196;-72
2023/03/30 11:32:18;;;;;;;10.13;9.63;;;;;;;12.60;43.58;93267.03;5007353;28;20223;-73
2023/03/30 11:34:46;;;;;;;10.60;10.00;;;;;;;12.39;43.69;93255.16;5012147;28;20832;-72
2023/03/30 11:37:20;;;;;;;9.80;9.27;;;;;;;12.20;43.31;93249.00;5027903;28;20300;-71
2023/03/30 11:39:55;;;;;;;9.67;9.27;;;;;;;12.29;42.99;93248.16;5026443;28;20717;-70
2023/03/30 11:42:25;;;;;;;9.70;9.20;;;;;;;11.78;46.02;93240.91;5027720;28;20210;-71
2023/03/30 11:44:51;;;;;;;10.40;9.80;;;;;;;11.71;43.75;93245.63;5027650;28;20843;-71